Погода Евсеевскийна неделю

Ростовская область, Россия

21 - 27 мая
  • 21мая
    Сегодня
    +11°
    +26°
    Облачно с прояснениями
    ВремяПогодаТемператураВлажностьДавлениеВетер, м/сВероятность осадков
    00:00Ясно и безоблачно+14°C66 %762 мм2.2 м/с2 %
    03:00Ясно и безоблачно+11°C79 %762 мм1.7 м/с2 %
    06:00Ясно и безоблачно+13°C71 %762 мм1.1 м/с2 %
    09:00Ясно и безоблачно+21°C42 %763 мм0.4 м/с2 %
    12:00Небольшая облачность+25°C29 %763 мм1.7 м/с2 %
    15:00Облачно с прояснениями+26°C26 %762 мм1.3 м/с2 %
    18:00Практически безоблачно+25°C28 %761 мм2.0 м/с2 %
    21:00Небольшая облачность+19°C41 %762 мм1.3 м/с2 %
  • 22мая
    Среда
    +12°
    +28°
    Ясно и безоблачно
    ВремяПогодаТемператураВлажностьДавлениеВетер, м/сВероятность осадков
    00:00Небольшая облачность+16°C45 %762 мм1.5 м/с2 %
    03:00Ясно и безоблачно+11°C54 %762 мм2.6 м/с2 %
    06:00Ясно и безоблачно+14°C54 %762 мм1.3 м/с2 %
    09:00Практически безоблачно+23°C32 %762 мм1.4 м/с2 %
    12:00Ясно и безоблачно+27°C24 %761 мм2.6 м/с2 %
    15:00Ясно и безоблачно+28°C25 %761 мм2.9 м/с2 %
    18:00Ясно и безоблачно+26°C25 %760 мм2.6 м/с2 %
    21:00Ясно и безоблачно+19°C33 %760 мм2.4 м/с2 %
  • 23мая
    Четверг
    +12°
    +28°
    Ясно и безоблачно
    ВремяПогодаТемператураВлажностьДавлениеВетер, м/сВероятность осадков
    00:00Ясно и безоблачно+15°C41 %760 мм2.5 м/с2 %
    03:00Ясно и безоблачно+12°C54 %760 мм2.1 м/с2 %
    06:00Ясно и безоблачно+13°C59 %760 мм1.8 м/с2 %
    09:00Ясно и безоблачно+23°C35 %760 мм0.9 м/с2 %
    12:00Ясно и безоблачно+27°C24 %760 мм3.2 м/с2 %
    15:00Ясно и безоблачно+27°C24 %759 мм2.9 м/с4 %
    18:00Практически безоблачно+25°C29 %759 мм5.3 м/с15 %
    21:00Ясно и безоблачно+19°C47 %760 мм4.8 м/с2 %
  • 24мая
    Пятница
    +9°
    +23°
    Ясно и безоблачно
    ВремяПогодаТемператураВлажностьДавлениеВетер, м/сВероятность осадков
    00:00Ясно и безоблачно+16°C60 %761 мм4.9 м/с2 %
    03:00Ясно и безоблачно+14°C73 %762 мм5.9 м/с2 %
    06:00Ясно и безоблачно+13°C49 %764 мм6.1 м/с2 %
    09:00Ясно и безоблачно+18°C38 %765 мм7.2 м/с2 %
    12:00Ясно и безоблачно+22°C32 %765 мм7.6 м/с2 %
    15:00Ясно и безоблачно+23°C27 %765 мм7.2 м/с2 %
    18:00Ясно и безоблачно+21°C20 %765 мм7.4 м/с2 %
    21:00Ясно и безоблачно+16°C26 %767 мм6.1 м/с2 %
  • 25мая
    Суббота
    +11°
    +22°
    Ясно и безоблачно
    ВремяПогодаТемператураВлажностьДавлениеВетер, м/сВероятность осадков
    00:00Ясно и безоблачно+13°C31 %768 мм5.9 м/с2 %
    03:00Ясно и безоблачно+10°C35 %768 мм5.5 м/с2 %
    06:00Ясно и безоблачно+10°C40 %769 мм4.8 м/с2 %
    09:00Ясно и безоблачно+16°C28 %769 мм7.3 м/с2 %
    12:00Ясно и безоблачно+20°C23 %769 мм7.3 м/с2 %
    15:00Ясно и безоблачно+21°C22 %768 мм7.0 м/с2 %
    18:00Ясно и безоблачно+21°C22 %767 мм6.5 м/с2 %
    21:00Облачно с прояснениями+17°C27 %767 мм4.8 м/с2 %
Мы используем cookies
Соглашаюсь